Time;durP1;ratioP1;P1;durP2;ratioP2;P2;SDS_P1;SDS_P2;PMS_P1;PMS_P2;Temp;Humidity;BMP_temperature;BMP_pressure;BME280_temperature;BME280_humidity;BME280_pressure;Samples;Min_cycle;Max_cycle;Signal;HPM_P1;HPM_P2
2021/03/03 00:02:14;;;;;;;23.23;13.47;;;2.50;99.90;;;;;;4980584;28;20204;-48
2021/03/03 00:04:40;;;;;;;24.00;13.57;;;2.40;99.90;;;;;;4997118;28;20220;-50
2021/03/03 00:07:05;;;;;;;25.10;14.53;;;2.40;99.90;;;;;;5000838;28;20183;-50
2021/03/03 00:09:31;;;;;;;22.77;14.17;;;2.30;99.90;;;;;;4983770;28;20170;-49
2021/03/03 00:11:56;;;;;;;28.10;15.53;;;2.30;99.90;;;;;;4983812;28;20170;-48
2021/03/03 00:14:22;;;;;;;25.70;16.13;;;2.20;99.90;;;;;;4967916;28;20205;-47
2021/03/03 00:16:47;;;;;;;25.03;14.73;;;2.20;99.90;;;;;;4983509;28;20182;-50
2021/03/03 00:19:13;;;;;;;32.07;14.83;;;2.10;99.90;;;;;;4980467;28;20192;-50
2021/03/03 00:21:39;;;;;;;26.97;14.20;;;2.20;99.90;;;;;;4982884;28;20177;-50
2021/03/03 00:24:05;;;;;;;24.87;16.20;;;2.20;99.90;;;;;;4981997;28;20211;-51
2021/03/03 00:26:30;;;;;;;31.33;15.87;;;2.20;99.90;;;;;;4980801;28;20189;-46
2021/03/03 00:28:56;;;;;;;28.23;15.47;;;2.10;99.90;;;;;;4967457;28;20181;-51
2021/03/03 00:31:22;;;;;;;26.50;16.00;;;2.10;99.90;;;;;;4983125;28;20173;-47
2021/03/03 00:33:48;;;;;;;28.03;15.83;;;2.10;99.90;;;;;;4989772;28;20192;-49
2021/03/03 00:36:13;;;;;;;28.93;15.77;;;2.10;99.90;;;;;;4998747;28;20212;-49
2021/03/03 00:38:39;;;;;;;21.77;14.67;;;2.10;99.90;;;;;;4992602;28;20191;-51
2021/03/03 00:41:05;;;;;;;22.67;14.63;;;2.20;99.90;;;;;;4983435;28;20181;-47
2021/03/03 00:43:30;;;;;;;23.07;14.77;;;2.20;99.90;;;;;;4987321;28;20191;-46
2021/03/03 00:45:56;;;;;;;24.20;14.53;;;2.20;99.90;;;;;;4987473;28;20236;-49
2021/03/03 00:48:22;;;;;;;22.90;14.03;;;2.10;99.90;;;;;;5005882;28;20206;-48
2021/03/03 00:50:48;;;;;;;22.20;13.63;;;2.10;99.90;;;;;;5003202;28;20203;-53
2021/03/03 00:53:14;;;;;;;20.83;14.30;;;2.10;99.90;;;;;;5004516;28;20232;-47
2021/03/03 00:55:42;;;;;;;20.90;13.63;;;2.10;99.90;;;;;;5004302;28;20845;-52
2021/03/03 00:58:10;;;;;;;24.40;14.00;;;2.10;99.90;;;;;;5019445;28;20194;-51
2021/03/03 01:00:43;;;;;;;22.47;13.10;;;2.10;99.90;;;;;;4981970;28;20193;-50
2021/03/03 01:03:09;;;;;;;22.10;13.07;;;2.00;99.90;;;;;;5003259;28;20204;-49
2021/03/03 01:05:41;;;;;;;18.13;12.53;;;2.00;99.90;;;;;;5002403;28;20229;-52
2021/03/03 01:08:09;;;;;;;21.13;13.23;;;2.00;99.90;;;;;;4997185;28;20172;-51
2021/03/03 01:10:37;;;;;;;17.50;12.73;;;1.90;99.90;;;;;;5001482;28;20209;-50
2021/03/03 01:13:03;;;;;;;17.63;12.00;;;1.90;99.90;;;;;;4983293;28;20252;-46
2021/03/03 01:15:30;;;;;;;21.20;12.40;;;1.90;99.90;;;;;;5001917;28;20215;-46
2021/03/03 01:18:00;;;;;;;21.47;13.07;;;1.90;99.90;;;;;;4975322;28;20189;-46
2021/03/03 01:20:28;;;;;;;22.30;13.00;;;1.90;99.90;;;;;;4986435;28;20278;-47
2021/03/03 01:22:54;;;;;;;23.07;12.80;;;1.90;99.90;;;;;;4983542;28;20188;-53
2021/03/03 01:25:19;;;;;;;18.27;12.67;;;1.90;99.90;;;;;;4986396;28;20221;-47
2021/03/03 01:27:45;;;;;;;20.80;13.37;;;1.80;99.90;;;;;;4985039;28;20271;-52
2021/03/03 01:30:11;;;;;;;17.77;12.67;;;1.80;99.90;;;;;;4984844;28;20204;-51
2021/03/03 01:32:37;;;;;;;17.53;11.97;;;1.70;99.90;;;;;;4979558;28;20197;-47
2021/03/03 01:35:03;;;;;;;20.20;13.47;;;1.70;99.90;;;;;;4984993;28;20200;-51
2021/03/03 01:37:28;;;;;;;20.87;12.47;;;1.60;99.90;;;;;;5006131;28;20281;-50
2021/03/03 01:39:54;;;;;;;20.20;12.87;;;1.60;99.90;;;;;;4982654;28;20274;-51
2021/03/03 01:42:19;;;;;;;18.53;12.93;;;1.60;99.90;;;;;;4986488;28;20239;-49
2021/03/03 01:44:45;;;;;;;18.33;11.77;;;1.60;99.90;;;;;;4984124;28;20227;-50
2021/03/03 01:47:10;;;;;;;19.37;11.97;;;1.50;99.90;;;;;;4984410;28;20173;-52
2021/03/03 01:49:36;;;;;;;19.63;12.50;;;1.50;99.90;;;;;;4973995;28;20769;-47
2021/03/03 01:52:02;;;;;;;19.47;12.97;;;1.50;99.90;;;;;;4982032;28;20816;-47
2021/03/03 01:54:28;;;;;;;21.60;13.77;;;1.50;99.90;;;;;;4985881;28;20307;-49
2021/03/03 01:56:54;;;;;;;19.87;14.13;;;1.40;99.90;;;;;;4982611;28;20432;-48
2021/03/03 01:59:19;;;;;;;18.40;12.57;;;1.40;99.90;;;;;;4985721;28;20184;-47
2021/03/03 02:01:45;;;;;;;17.60;12.27;;;1.40;99.90;;;;;;4988451;28;20210;-48
2021/03/03 02:04:11;;;;;;;19.10;12.20;;;1.30;99.90;;;;;;4984491;28;20216;-47
2021/03/03 02:06:51;;;;;;;17.50;11.53;;;1.20;99.90;;;;;;4981820;28;20180;-48
2021/03/03 02:09:16;;;;;;;16.40;11.90;;;1.20;99.90;;;;;;4984525;28;20227;-50
2021/03/03 02:11:58;;;;;;;15.40;10.67;;;1.10;99.90;;;;;;4982692;28;20203;-50
2021/03/03 02:14:27;;;;;;;18.37;12.23;;;1.10;99.90;;;;;;4984005;28;20564;-51
2021/03/03 02:16:55;;;;;;;17.00;11.80;;;1.00;99.90;;;;;;4985040;28;20637;-50
2021/03/03 02:19:28;;;;;;;17.33;12.23;;;1.00;99.90;;;;;;4978703;28;20199;-51
2021/03/03 02:22:35;;;;;;;16.97;11.63;;;1.00;99.90;;;;;;5004370;28;20271;-46
2021/03/03 02:25:29;;;;;;;15.27;11.43;;;1.00;99.90;;;;;;5004971;28;20573;-49
2021/03/03 02:28:15;;;;;;;14.77;10.97;;;1.00;99.90;;;;;;4996251;28;20187;-47
2021/03/03 02:30:43;;;;;;;17.00;11.43;;;1.00;99.90;;;;;;5001910;28;20203;-51
2021/03/03 02:33:10;;;;;;;16.97;12.03;;;1.00;99.90;;;;;;5004782;28;20536;-47
2021/03/03 02:35:37;;;;;;;17.57;12.00;;;1.10;99.90;;;;;;4978024;28;20291;-47
2021/03/03 02:38:04;;;;;;;17.17;11.40;;;1.10;99.90;;;;;;4984944;28;20193;-48
2021/03/03 02:40:31;;;;;;;15.77;11.73;;;1.10;99.90;;;;;;5000475;28;20207;-49
2021/03/03 02:42:57;;;;;;;18.93;11.37;;;1.00;99.90;;;;;;4983266;28;20239;-48
2021/03/03 02:45:25;;;;;;;17.87;11.43;;;0.90;99.90;;;;;;5002842;28;20363;-47
2021/03/03 02:47:52;;;;;;;19.40;12.40;;;0.90;99.90;;;;;;5003325;28;20199;-51
2021/03/03 02:50:18;;;;;;;15.97;11.30;;;0.80;99.90;;;;;;4983595;28;20199;-48
2021/03/03 02:52:58;;;;;;;17.77;12.60;;;0.70;99.90;;;;;;4984717;28;20173;-48
2021/03/03 02:55:25;;;;;;;16.10;11.13;;;0.70;99.90;;;;;;4982206;28;20939;-47
2021/03/03 02:57:52;;;;;;;16.87;11.13;;;0.60;99.90;;;;;;4983978;28;20199;-48
2021/03/03 03:00:29;;;;;;;19.00;12.40;;;0.60;99.90;;;;;;4982317;28;20197;-47
2021/03/03 03:03:10;;;;;;;15.87;11.10;;;0.60;99.90;;;;;;4983912;28;20181;-48
2021/03/03 03:05:37;;;;;;;15.63;11.23;;;0.50;99.90;;;;;;4988821;28;20219;-46
2021/03/03 03:08:04;;;;;;;17.17;11.13;;;0.60;99.90;;;;;;4980916;28;20233;-50
2021/03/03 03:10:30;;;;;;;15.73;11.20;;;0.60;99.90;;;;;;4984569;28;20180;-48
2021/03/03 03:12:58;;;;;;;16.33;11.10;;;0.60;99.90;;;;;;4982382;28;20180;-51
2021/03/03 03:15:28;;;;;;;18.67;11.70;;;0.60;99.90;;;;;;4983284;28;20993;-47
2021/03/03 03:17:59;;;;;;;16.67;11.13;;;0.50;99.90;;;;;;4991746;28;20270;-51
2021/03/03 03:20:26;;;;;;;13.53;10.90;;;0.60;99.90;;;;;;4995097;28;20205;-48
2021/03/03 03:22:53;;;;;;;15.10;10.90;;;0.60;99.90;;;;;;4975116;28;20227;-51
2021/03/03 03:25:19;;;;;;;19.60;11.57;;;0.60;99.90;;;;;;4981817;28;21041;-49
2021/03/03 03:27:47;;;;;;;16.00;11.13;;;0.60;99.90;;;;;;4984533;28;20522;-47
2021/03/03 03:30:14;;;;;;;15.37;10.83;;;0.60;99.90;;;;;;4980518;28;20239;-48
2021/03/03 03:32:41;;;;;;;14.03;10.50;;;0.60;99.90;;;;;;4984279;28;20221;-47
2021/03/03 03:35:08;;;;;;;15.37;10.60;;;0.60;99.90;;;;;;4993110;28;20194;-49
2021/03/03 03:37:35;;;;;;;14.17;10.63;;;0.50;99.90;;;;;;4973628;28;20254;-47
2021/03/03 03:40:01;;;;;;;15.63;10.20;;;0.50;99.90;;;;;;4981184;28;20645;-48
2021/03/03 03:42:28;;;;;;;15.67;10.50;;;0.40;99.90;;;;;;4983458;28;20279;-45
2021/03/03 03:44:55;;;;;;;14.63;10.70;;;0.50;99.90;;;;;;4981801;28;20299;-47
2021/03/03 03:47:21;;;;;;;17.30;11.27;;;0.40;99.90;;;;;;4986885;28;20975;-47
2021/03/03 03:49:48;;;;;;;17.30;11.57;;;0.50;99.90;;;;;;5000246;28;20191;-51
2021/03/03 03:52:18;;;;;;;13.87;10.00;;;0.40;99.90;;;;;;4970052;28;24772;-47
2021/03/03 03:54:52;;;;;;;15.23;10.30;;;0.40;99.90;;;;;;4984797;28;20210;-51
2021/03/03 03:57:18;;;;;;;15.63;10.33;;;0.40;99.90;;;;;;4981023;28;20190;-49
2021/03/03 03:59:44;;;;;;;14.37;10.07;;;0.30;99.90;;;;;;4983508;28;20525;-50
2021/03/03 04:02:09;;;;;;;13.87;10.40;;;0.30;99.90;;;;;;4980264;28;20185;-49
2021/03/03 04:04:36;;;;;;;16.07;11.27;;;0.30;99.90;;;;;;4998791;28;20690;-51
2021/03/03 04:07:02;;;;;;;16.50;11.23;;;0.30;99.90;;;;;;4987683;28;20200;-49
2021/03/03 04:09:27;;;;;;;13.50;10.47;;;0.20;99.90;;;;;;4976501;28;20198;-49
2021/03/03 04:11:53;;;;;;;14.60;10.87;;;0.20;99.90;;;;;;4983129;28;20264;-47
2021/03/03 04:14:19;;;;;;;13.93;10.57;;;0.20;99.90;;;;;;4980871;28;20293;-51
2021/03/03 04:16:44;;;;;;;15.67;10.60;;;0.20;99.90;;;;;;4981739;28;20178;-46
2021/03/03 04:19:10;;;;;;;15.10;10.60;;;0.20;99.90;;;;;;5002352;28;20236;-48
2021/03/03 04:21:35;;;;;;;14.73;9.77;;;0.20;99.90;;;;;;4982393;28;20183;-50
2021/03/03 04:24:01;;;;;;;14.77;10.57;;;0.20;99.90;;;;;;4975638;28;20213;-46
2021/03/03 04:26:26;;;;;;;15.47;10.50;;;0.20;99.90;;;;;;4983598;28;20185;-48
2021/03/03 04:28:52;;;;;;;16.63;10.23;;;0.20;99.90;;;;;;4982608;28;20182;-50
2021/03/03 04:31:17;;;;;;;14.23;10.63;;;0.10;99.90;;;;;;4981692;28;20185;-51
2021/03/03 04:33:43;;;;;;;15.50;10.37;;;0.00;99.90;;;;;;4989714;28;20928;-47
2021/03/03 04:36:09;;;;;;;16.07;10.57;;;0.10;99.90;;;;;;4994761;28;20197;-48
2021/03/03 04:38:34;;;;;;;13.20;10.27;;;0.00;99.90;;;;;;4999135;28;20232;-49
2021/03/03 04:41:00;;;;;;;14.07;9.93;;;0.00;99.90;;;;;;4984294;28;20329;-48
2021/03/03 04:43:26;;;;;;;13.50;9.93;;;0.00;99.90;;;;;;4988022;28;20180;-54
2021/03/03 04:45:51;;;;;;;11.60;9.23;;;0.00;99.90;;;;;;5002628;28;20216;-47
2021/03/03 04:48:18;;;;;;;15.67;10.57;;;0.10;99.90;;;;;;5001677;28;20182;-53
2021/03/03 04:50:43;;;;;;;12.60;9.93;;;0.00;99.90;;;;;;4998628;28;20177;-46
2021/03/03 04:53:10;;;;;;;16.63;11.20;;;0.00;99.90;;;;;;4997332;28;20182;-46
2021/03/03 04:55:35;;;;;;;14.60;10.50;;;0.00;99.90;;;;;;4967637;28;20802;-46
2021/03/03 04:58:01;;;;;;;13.13;9.57;;;-0.10;99.90;;;;;;4987194;28;20200;-52
2021/03/03 05:00:26;;;;;;;12.53;9.83;;;-0.10;99.90;;;;;;4998832;28;20234;-46
2021/03/03 05:02:52;;;;;;;15.13;10.43;;;-0.10;99.90;;;;;;5001964;28;20649;-50
2021/03/03 05:05:17;;;;;;;15.27;10.10;;;0.00;99.90;;;;;;5000789;28;20761;-51
2021/03/03 05:07:43;;;;;;;16.13;10.33;;;0.00;99.90;;;;;;4982371;28;20793;-49
2021/03/03 05:10:09;;;;;;;13.30;10.50;;;-0.10;99.90;;;;;;4982962;28;20539;-49
2021/03/03 05:12:35;;;;;;;14.70;9.83;;;-0.10;99.90;;;;;;4975604;28;20988;-48
2021/03/03 05:15:00;;;;;;;14.30;10.17;;;-0.10;99.90;;;;;;4995658;28;20208;-48
2021/03/03 05:17:26;;;;;;;15.77;10.73;;;-0.10;99.90;;;;;;5000035;28;20201;-50
2021/03/03 05:19:51;;;;;;;14.00;9.90;;;-0.10;99.90;;;;;;4998967;28;20260;-50
2021/03/03 05:22:17;;;;;;;14.37;10.33;;;-0.10;99.90;;;;;;4981878;28;20256;-53
2021/03/03 05:24:42;;;;;;;15.27;10.27;;;-0.10;99.90;;;;;;4980763;28;20212;-46
2021/03/03 05:27:08;;;;;;;14.70;10.27;;;0.00;99.90;;;;;;4974514;28;20189;-47
2021/03/03 05:29:34;;;;;;;16.43;11.30;;;0.00;99.90;;;;;;4990238;28;20173;-46
2021/03/03 05:31:59;;;;;;;20.23;11.33;;;0.00;99.90;;;;;;4986527;28;20177;-48
2021/03/03 05:34:25;;;;;;;17.13;11.10;;;0.00;99.90;;;;;;4997072;28;20211;-50
2021/03/03 05:36:51;;;;;;;14.60;10.80;;;0.00;99.90;;;;;;4994384;28;20674;-47
2021/03/03 05:39:16;;;;;;;17.03;11.23;;;0.00;99.90;;;;;;4984962;28;20196;-50
2021/03/03 05:41:42;;;;;;;18.80;11.63;;;0.00;99.90;;;;;;4967895;28;20208;-50
2021/03/03 05:44:08;;;;;;;18.17;11.57;;;0.10;99.90;;;;;;4985598;28;20296;-51
2021/03/03 05:46:37;;;;;;;20.07;12.40;;;0.10;99.90;;;;;;4998797;28;20402;-50
2021/03/03 05:49:04;;;;;;;19.07;12.27;;;0.10;99.90;;;;;;5005406;28;20185;-47
2021/03/03 05:51:31;;;;;;;32.50;13.87;;;0.10;99.90;;;;;;4985460;28;20286;-52
2021/03/03 05:53:59;;;;;;;43.80;15.20;;;0.10;99.90;;;;;;4998115;28;20650;-48
2021/03/03 05:56:25;;;;;;;48.17;14.30;;;0.10;99.90;;;;;;4998156;28;20208;-48
2021/03/03 05:58:52;;;;;;;49.33;16.70;;;0.10;99.90;;;;;;4976672;28;20305;-49
2021/03/03 06:01:18;;;;;;;90.13;17.77;;;0.20;99.90;;;;;;4989769;28;20294;-51
2021/03/03 06:03:44;;;;;;;100.83;18.13;;;0.20;99.90;;;;;;5005837;28;20177;-49
2021/03/03 06:06:12;;;;;;;81.27;16.97;;;0.20;99.90;;;;;;4996105;28;20792;-50
2021/03/03 06:08:37;;;;;;;87.47;16.80;;;0.20;99.90;;;;;;4984782;28;20202;-51
2021/03/03 06:11:04;;;;;;;48.53;15.77;;;0.10;99.90;;;;;;4988760;28;20244;-53
2021/03/03 06:13:30;;;;;;;78.23;16.47;;;0.10;99.90;;;;;;4975625;28;20213;-50
2021/03/03 06:15:56;;;;;;;74.70;15.00;;;0.10;99.90;;;;;;4989802;28;20205;-52
2021/03/03 06:18:23;;;;;;;71.80;15.93;;;0.10;99.90;;;;;;4989760;28;20189;-53
2021/03/03 06:20:50;;;;;;;63.43;15.47;;;0.10;99.90;;;;;;5000936;28;20186;-50
2021/03/03 06:23:25;;;;;;;68.33;16.53;;;0.10;99.90;;;;;;4994463;28;20197;-53
2021/03/03 06:26:03;;;;;;;66.20;15.20;;;0.20;99.90;;;;;;5005844;28;20240;-50
2021/03/03 06:28:35;;;;;;;72.27;15.20;;;0.20;99.90;;;;;;4979297;28;20185;-47
2021/03/03 06:31:21;;;;;;;78.67;17.97;;;0.20;99.90;;;;;;4994155;28;20265;-51
2021/03/03 06:33:47;;;;;;;45.17;14.23;;;0.20;99.90;;;;;;4988743;28;20248;-57
2021/03/03 06:36:23;;;;;;;72.33;15.33;;;0.20;99.90;;;;;;4990211;28;20662;-52
2021/03/03 06:38:49;;;;;;;73.07;15.90;;;0.20;99.90;;;;;;4988124;28;20264;-46
2021/03/03 06:41:15;;;;;;;45.97;14.17;;;0.20;99.90;;;;;;4997421;28;20730;-55
2021/03/03 06:43:55;;;;;;;49.80;16.20;;;0.30;99.90;;;;;;4983286;28;20393;-54
2021/03/03 06:46:21;;;;;;;71.13;15.27;;;0.30;99.90;;;;;;5000384;28;20250;-56
2021/03/03 06:48:46;;;;;;;41.97;14.20;;;0.30;99.90;;;;;;4993770;28;20205;-54
2021/03/03 06:51:30;;;;;;;57.20;14.90;;;0.30;99.90;;;;;;4993206;28;20283;-56
2021/03/03 06:54:38;;;;;;;47.60;15.00;;;0.20;99.90;;;;;;4991774;28;20733;-56
2021/03/03 06:57:24;;;;;;;45.37;14.17;;;0.30;99.90;;;;;;4994438;28;20189;-56
2021/03/03 06:59:51;;;;;;;43.37;13.80;;;0.30;99.90;;;;;;4979625;28;20294;-54
2021/03/03 07:02:32;;;;;;;45.20;14.03;;;0.30;99.90;;;;;;4994064;28;20216;-57
2021/03/03 07:04:58;;;;;;;71.40;15.73;;;0.40;99.90;;;;;;4994393;28;20300;-56
2021/03/03 07:07:24;;;;;;;49.03;14.70;;;0.40;99.90;;;;;;4993329;28;20219;-57
2021/03/03 07:09:53;;;;;;;73.83;15.37;;;0.40;99.90;;;;;;5000276;28;20296;-53
2021/03/03 07:12:20;;;;;;;70.27;16.70;;;0.50;99.90;;;;;;5002626;28;20535;-56
2021/03/03 07:14:55;;;;;;;78.10;16.67;;;0.50;99.90;;;;;;4996471;28;20613;-55
2021/03/03 07:17:22;;;;;;;68.40;15.93;;;0.60;99.90;;;;;;4976355;28;20557;-56
2021/03/03 07:19:48;;;;;;;63.83;16.33;;;0.60;99.90;;;;;;4994549;28;20202;-56
2021/03/03 07:22:33;;;;;;;33.53;13.83;;;0.60;99.90;;;;;;4990914;28;20195;-55
2021/03/03 07:25:08;;;;;;;45.37;15.70;;;0.70;99.90;;;;;;4988099;28;20259;-56
2021/03/03 07:27:35;;;;;;;63.93;15.23;;;0.80;99.90;;;;;;4997041;28;20688;-57
2021/03/03 07:30:04;;;;;;;63.13;15.40;;;0.80;99.90;;;;;;4991028;28;20180;-57
2021/03/03 07:32:29;;;;;;;95.67;17.37;;;0.80;99.90;;;;;;4989097;28;20267;-54
2021/03/03 07:34:56;;;;;;;80.47;18.53;;;0.80;99.90;;;;;;4998750;28;20248;-55
2021/03/03 07:37:32;;;;;;;73.83;16.37;;;0.80;99.90;;;;;;4996930;28;20196;-57
2021/03/03 07:40:13;;;;;;;80.97;17.00;;;0.80;99.90;;;;;;4999976;28;20191;-55
2021/03/03 07:42:40;;;;;;;60.17;16.83;;;0.80;99.90;;;;;;4980041;28;20189;-55
2021/03/03 07:45:11;;;;;;;95.03;16.60;;;0.80;99.90;;;;;;4991734;28;20209;-56
2021/03/03 07:47:39;;;;;;;85.27;18.17;;;1.00;99.90;;;;;;4987085;28;20221;-57
2021/03/03 07:50:11;;;;;;;50.97;15.73;;;1.00;99.90;;;;;;4991416;28;20177;-54
2021/03/03 07:52:40;;;;;;;51.37;16.47;;;1.10;99.90;;;;;;5004800;28;20661;-50
2021/03/03 07:55:06;;;;;;;81.37;17.03;;;1.10;99.90;;;;;;4987218;28;20312;-54
2021/03/03 07:57:34;;;;;;;43.90;17.47;;;1.20;99.90;;;;;;5015910;28;20247;-56
2021/03/03 08:00:05;;;;;;;57.67;17.23;;;1.30;99.90;;;;;;4989886;28;20873;-55
2021/03/03 08:02:50;;;;;;;75.27;19.10;;;1.30;99.90;;;;;;4982485;28;20210;-55
2021/03/03 08:05:39;;;;;;;73.40;18.70;;;1.40;99.90;;;;;;4991201;28;20393;-55
2021/03/03 08:08:12;;;;;;;82.67;19.67;;;1.50;99.90;;;;;;4988940;28;20198;-57
2021/03/03 08:10:39;;;;;;;71.20;18.70;;;1.60;99.90;;;;;;4997014;28;20179;-48
2021/03/03 08:13:13;;;;;;;84.40;19.07;;;1.60;99.90;;;;;;5000619;28;20193;-48
2021/03/03 08:15:47;;;;;;;62.67;20.13;;;1.70;99.90;;;;;;5003112;28;20208;-51
2021/03/03 08:18:26;;;;;;;59.37;18.93;;;1.80;99.90;;;;;;4987812;28;20199;-55
2021/03/03 08:20:54;;;;;;;54.60;19.20;;;1.80;99.90;;;;;;4982371;28;20540;-54
2021/03/03 08:23:52;;;;;;;55.17;21.47;;;1.90;99.90;;;;;;4991627;28;20664;-54
2021/03/03 08:26:18;;;;;;;55.13;20.07;;;2.00;99.90;;;;;;4994789;28;20273;-51
2021/03/03 08:28:48;;;;;;;56.20;22.80;;;2.10;99.90;;;;;;4985146;28;20900;-53
2021/03/03 08:31:24;;;;;;;53.93;22.77;;;2.20;99.90;;;;;;4996834;28;20247;-53
2021/03/03 08:33:50;;;;;;;61.20;25.33;;;2.30;99.90;;;;;;4976566;28;20211;-48
2021/03/03 08:36:21;;;;;;;56.67;25.10;;;2.40;99.90;;;;;;4997775;28;20215;-52
2021/03/03 08:39:09;;;;;;;65.17;24.10;;;2.60;99.90;;;;;;4998015;28;20188;-46
2021/03/03 08:41:39;;;;;;;61.20;24.83;;;2.60;99.90;;;;;;4994454;28;20222;-48
2021/03/03 08:44:14;;;;;;;63.13;25.43;;;2.70;99.90;;;;;;4995392;28;20241;-47
2021/03/03 08:46:42;;;;;;;63.40;25.30;;;2.80;99.90;;;;;;4996779;28;20206;-50
2021/03/03 08:49:08;;;;;;;66.27;25.83;;;2.90;99.90;;;;;;4981559;28;20191;-50
2021/03/03 08:51:40;;;;;;;66.90;26.43;;;3.10;99.90;;;;;;4998309;28;20183;-47
2021/03/03 08:54:10;;;;;;;64.67;27.53;;;3.20;99.90;;;;;;4999419;28;20246;-50
2021/03/03 08:56:48;;;;;;;61.53;24.13;;;3.40;99.90;;;;;;4996888;28;20184;-51
2021/03/03 08:59:28;;;;;;;60.30;26.03;;;3.50;99.90;;;;;;4993130;28;20263;-47
2021/03/03 09:02:17;;;;;;;71.10;27.87;;;3.70;99.90;;;;;;5001809;28;20348;-52
2021/03/03 09:04:45;;;;;;;60.30;24.97;;;3.90;99.90;;;;;;4990870;28;20704;-47
2021/03/03 09:07:23;;;;;;;56.63;25.33;;;4.00;99.90;;;;;;4994024;28;20203;-50
2021/03/03 09:09:50;;;;;;;52.93;24.80;;;4.20;99.90;;;;;;4988266;28;20193;-50
2021/03/03 09:12:22;;;;;;;56.43;24.57;;;4.30;99.90;;;;;;5000864;28;20172;-46
2021/03/03 09:14:49;;;;;;;52.40;24.00;;;4.50;99.90;;;;;;4998957;28;20266;-50
2021/03/03 09:17:21;;;;;;;48.30;22.70;;;4.60;99.90;;;;;;4991077;28;20187;-48
2021/03/03 09:19:47;;;;;;;42.47;21.43;;;4.70;99.90;;;;;;4987401;28;20281;-48
2021/03/03 09:22:21;;;;;;;42.33;21.93;;;4.90;99.90;;;;;;4992099;28;20196;-49
2021/03/03 09:25:12;;;;;;;39.53;21.00;;;5.00;99.90;;;;;;4998217;28;20606;-53
2021/03/03 09:27:55;;;;;;;45.87;22.20;;;5.20;99.90;;;;;;4991123;28;20662;-49
2021/03/03 09:30:22;;;;;;;44.77;22.50;;;5.50;99.90;;;;;;5000652;28;20207;-47
2021/03/03 09:32:48;;;;;;;42.83;20.80;;;5.80;99.90;;;;;;4997541;28;20188;-48
2021/03/03 09:35:14;;;;;;;35.73;18.70;;;6.10;99.90;;;;;;4985374;28;21403;-49
2021/03/03 09:37:45;;;;;;;35.03;18.33;;;6.40;99.90;;;;;;4991653;28;20334;-48
2021/03/03 09:40:13;;;;;;;34.43;18.33;;;6.50;99.90;;;;;;4993446;28;20197;-51
2021/03/03 09:42:41;;;;;;;34.13;17.97;;;6.60;99.90;;;;;;4993458;28;20192;-49
2021/03/03 09:45:15;;;;;;;31.63;18.13;;;6.80;99.90;;;;;;4995122;28;20213;-52
2021/03/03 09:47:41;;;;;;;32.43;16.77;;;6.90;99.90;;;;;;5001535;28;20201;-47
2021/03/03 09:50:13;;;;;;;31.63;19.13;;;7.10;99.90;;;;;;4987171;28;20192;-49
2021/03/03 09:52:41;;;;;;;36.03;17.83;;;7.20;99.90;;;;;;4999645;28;20218;-48
2021/03/03 09:55:12;;;;;;;36.03;17.93;;;7.30;99.90;;;;;;4992081;28;20232;-52
2021/03/03 09:57:39;;;;;;;33.10;17.70;;;7.40;99.90;;;;;;4997699;28;20279;-46
2021/03/03 10:00:17;;;;;;;29.10;18.03;;;7.70;99.90;;;;;;4993934;28;20184;-53
2021/03/03 10:02:53;;;;;;;32.80;18.97;;;7.80;99.90;;;;;;5008712;28;20196;-47
2021/03/03 10:05:20;;;;;;;31.80;17.57;;;8.00;99.90;;;;;;5001463;28;20204;-46
2021/03/03 10:08:03;;;;;;;34.20;17.70;;;8.20;99.90;;;;;;4986743;28;20276;-46
2021/03/03 10:10:37;;;;;;;35.77;17.77;;;8.20;99.90;;;;;;4988179;28;20220;-46
2021/03/03 10:13:04;;;;;;;31.37;16.80;;;8.30;99.90;;;;;;5022303;28;20180;-51
2021/03/03 10:15:31;;;;;;;30.70;17.53;;;8.50;99.90;;;;;;5024187;28;20581;-46
2021/03/03 10:17:57;;;;;;;33.53;16.83;;;8.70;99.90;;;;;;5009811;28;20189;-50
2021/03/03 10:20:27;;;;;;;34.57;17.30;;;8.90;99.90;;;;;;4995311;28;20169;-51
2021/03/03 10:22:57;;;;;;;27.60;15.77;;;9.00;99.90;;;;;;4982126;28;20189;-51
2021/03/03 10:25:32;;;;;;;32.17;17.43;;;9.10;99.90;;;;;;4984453;28;20972;-47
2021/03/03 10:28:03;;;;;;;28.97;16.07;;;9.30;99.90;;;;;;5012835;28;20602;-53
2021/03/03 10:30:31;;;;;;;30.80;16.03;;;9.30;99.90;;;;;;5004305;28;20196;-46
2021/03/03 10:32:56;;;;;;;37.40;17.73;;;9.50;99.90;;;;;;4994797;28;20208;-51
2021/03/03 10:35:23;;;;;;;34.27;17.97;;;9.60;99.90;;;;;;5002200;28;20235;-50
2021/03/03 10:37:50;;;;;;;35.40;18.37;;;9.80;99.90;;;;;;4981456;28;20228;-50
2021/03/03 10:40:17;;;;;;;32.03;17.60;;;9.80;99.90;;;;;;4979725;28;20708;-48
2021/03/03 10:42:43;;;;;;;28.27;17.00;;;9.80;99.90;;;;;;4989746;28;20191;-52
2021/03/03 10:45:23;;;;;;;28.87;15.80;;;10.00;99.90;;;;;;4993551;28;20220;-48
2021/03/03 10:47:50;;;;;;;29.10;17.00;;;10.10;99.90;;;;;;4994940;28;20873;-47
2021/03/03 10:50:18;;;;;;;29.03;16.00;;;10.10;99.90;;;;;;4983073;28;20188;-49
2021/03/03 10:53:02;;;;;;;33.03;19.03;;;10.30;99.90;;;;;;4984479;28;20188;-47
2021/03/03 10:55:34;;;;;;;28.73;16.10;;;10.50;99.90;;;;;;4991272;28;20209;-50
2021/03/03 10:58:20;;;;;;;30.93;16.47;;;10.70;99.90;;;;;;4996390;28;20197;-52
2021/03/03 11:00:52;;;;;;;30.67;14.90;;;10.80;99.90;;;;;;5004645;28;20201;-48
2021/03/03 11:03:19;;;;;;;35.93;16.10;;;10.90;99.90;;;;;;4988246;28;20181;-48
2021/03/03 11:05:48;;;;;;;21.50;14.40;;;11.10;99.90;;;;;;5002794;28;20216;-48
2021/03/03 11:08:14;;;;;;;23.63;14.00;;;11.30;99.90;;;;;;4972579;28;21667;-52
2021/03/03 11:10:39;;;;;;;24.97;13.97;;;11.40;99.90;;;;;;4983238;28;20658;-49
2021/03/03 11:13:05;;;;;;;19.70;12.80;;;11.50;99.90;;;;;;4998202;28;20172;-51
2021/03/03 11:15:30;;;;;;;21.50;13.37;;;11.60;99.90;;;;;;4995313;28;20201;-49
2021/03/03 11:17:56;;;;;;;21.07;12.27;;;11.80;99.90;;;;;;5004042;28;20180;-50
2021/03/03 11:20:22;;;;;;;19.23;13.20;;;11.90;99.90;;;;;;4993019;28;20184;-49
2021/03/03 11:22:47;;;;;;;19.30;12.60;;;12.10;99.90;;;;;;4996432;28;20188;-47
2021/03/03 11:25:13;;;;;;;23.23;12.03;;;12.20;99.90;;;;;;4980513;28;21014;-49
2021/03/03 11:27:39;;;;;;;24.90;12.87;;;12.20;99.90;;;;;;4986845;28;20181;-48
2021/03/03 11:30:05;;;;;;;25.93;13.10;;;12.30;99.90;;;;;;4996644;28;20632;-49
2021/03/03 11:32:31;;;;;;;24.07;13.70;;;12.40;99.90;;;;;;4987142;28;20279;-51
2021/03/03 11:34:57;;;;;;;23.70;13.00;;;12.40;99.90;;;;;;4997703;28;20213;-51
2021/03/03 11:37:22;;;;;;;24.30;14.07;;;12.50;99.90;;;;;;5001462;28;20177;-49
2021/03/03 11:39:51;;;;;;;26.17;15.53;;;12.50;99.90;;;;;;4989612;28;20189;-49
2021/03/03 11:42:17;;;;;;;22.10;15.07;;;12.50;99.90;;;;;;4988517;28;20192;-49
2021/03/03 11:44:42;;;;;;;21.37;13.37;;;12.60;99.90;;;;;;4997379;28;20216;-46
2021/03/03 11:47:09;;;;;;;19.50;12.73;;;12.70;99.90;;;;;;4995034;28;20177;-50
2021/03/03 11:49:34;;;;;;;20.20;12.50;;;12.80;99.90;;;;;;4993096;28;20193;-50
2021/03/03 11:52:00;;;;;;;21.10;12.60;;;12.70;99.90;;;;;;4983562;28;20177;-47
2021/03/03 11:54:25;;;;;;;18.73;12.60;;;12.80;99.90;;;;;;4993172;28;20207;-50
2021/03/03 11:56:51;;;;;;;25.10;13.77;;;12.90;99.90;;;;;;4980499;28;20362;-50
2021/03/03 11:59:16;;;;;;;21.97;13.27;;;13.00;99.90;;;;;;4993621;28;20231;-50
2021/03/03 12:01:42;;;;;;;26.27;14.00;;;13.10;99.90;;;;;;4994120;28;20180;-47
2021/03/03 12:04:07;;;;;;;21.03;12.10;;;13.20;99.90;;;;;;5000015;28;20185;-50
2021/03/03 12:06:33;;;;;;;21.03;12.97;;;13.30;99.90;;;;;;4999474;28;20189;-46
2021/03/03 12:08:59;;;;;;;20.40;13.57;;;13.30;99.90;;;;;;5002616;28;20173;-50
2021/03/03 12:11:24;;;;;;;19.60;12.47;;;13.40;99.90;;;;;;4986829;28;20922;-47
2021/03/03 12:13:50;;;;;;;26.43;13.43;;;13.40;99.90;;;;;;4990827;28;20181;-50
2021/03/03 12:16:15;;;;;;;22.90;13.97;;;13.40;99.90;;;;;;4979779;28;20185;-46
2021/03/03 12:18:41;;;;;;;22.33;13.47;;;13.30;99.90;;;;;;5001451;28;20192;-49
2021/03/03 12:21:06;;;;;;;23.20;13.27;;;13.30;99.90;;;;;;4997108;28;20192;-50
2021/03/03 12:23:32;;;;;;;20.40;13.50;;;13.20;99.90;;;;;;5002872;28;20223;-48
2021/03/03 12:25:58;;;;;;;22.83;13.07;;;13.20;99.90;;;;;;4997864;28;20236;-50
2021/03/03 12:28:23;;;;;;;32.73;13.67;;;13.20;99.90;;;;;;4975857;28;20199;-48
2021/03/03 12:30:49;;;;;;;26.63;14.17;;;13.20;99.90;;;;;;4992959;28;20218;-51
2021/03/03 12:33:15;;;;;;;20.70;14.43;;;13.30;99.90;;;;;;4994132;28;20172;-50
2021/03/03 12:35:41;;;;;;;25.70;14.43;;;13.30;99.90;;;;;;4991084;28;20212;-52
2021/03/03 12:38:06;;;;;;;25.33;15.83;;;13.30;99.90;;;;;;4999138;28;20890;-49
2021/03/03 12:40:32;;;;;;;25.13;14.23;;;13.40;99.90;;;;;;4998021;28;20243;-49
2021/03/03 12:42:57;;;;;;;20.47;13.97;;;13.40;99.90;;;;;;4985845;28;20196;-46
2021/03/03 12:45:23;;;;;;;26.57;15.23;;;13.50;99.90;;;;;;4998503;28;20216;-48